Hay, WA

4:19 PM PST on November 23, 2014 (GMT -0800)
Central Ferry | Change Station
CLOSE
Current Station
Personal Weather Station
Location: Pomeroy, WA
Elevation: 671 ft
Nearby Weather Stations

Elev 671 ft 46.67 °N, 117.75 °W | Updated 11 minutes ago

Overcast
Overcast
50.0 °F
Feels Like 44 °F
N
16.0
Wind Variable Wind from SW
Gusts 17.0 mph

Today
High -- | Low -- °F
--% Chance of Precip.
Yesterday
High -- | Low -- °F
Precip. -- in
7:05 AM 4:10 PM
Waxing Crescent, 3% visible
Pressure 30.05 in
Visibility 10.0 miles
Clouds Scattered Clouds 1900 ft
Mostly Cloudy 2800 ft
Overcast 3800 ft
Windchill 44 °F
Dew Point 42 °F
Humidity 75%
Rainfall 0.02 in
Snow Depth Not available.
UV 0 out of 12
Pollen .10 out of 12
Air Quality Not available.
Flu Activity Not available.
SPECI KPUW 240007Z AUTO 24016KT 10SM SCT019 BKN028 OVC038 05/03 A3005 RMK AO2 PK WND 24026/2356 T00500028

More Conditions Fewer Conditions

Pressure 30.05 in
Visibility 10.0 miles
Clouds Scattered Clouds 1900 ft
Mostly Cloudy 2800 ft
Overcast 3800 ft
Windchill 44 °F
Dew Point 42 °F
Humidity 75%
Rainfall 0.02 in
Snow Depth Not available.
UV 0 out of 12
Pollen .10 out of 12
Air Quality Not available.
Flu Activity Not available.
SPECI KPUW 240007Z AUTO 24016KT 10SM SCT019 BKN028 OVC038 05/03 A3005 RMK AO2 PK WND 24026/2356 T00500028

More Conditions Fewer Conditions

Nowcast | as of 2:47 PM PST on November 23, 2014

Through 5 PM...expect brisk and gusty southwest winds with speeds reaching 30 to 40 mph. The strongest winds will accompany the band of showers...especially near Pullman...the Alpowa Summit and other exposed locations. These winds will decrease by early evening.

×

10-Day Weather Forecast

Almanac

Astronomy

Nov. 23, 2014 Rise Set
Actual Time
Civil Twilight
Nautical Twilight
Astronomical Twilight
Moon
Length of Visible Light
Length of Day
Tomorrow will be .
, % of the Moon is Illuminated

Today's Extremes

State Highs State Lows

Community

WunderPhotos

Upload Photos

1,773,216 photos uploaded!

WunderBlogs® & News

Nearby

Air Quality

  Air Quality AQ Index Pollutant
Not available.

Snow Depth

Station Depth Elevation

Earthquake Activity

City Distance Mag. Time & Date
Minimum magnitude displayed is 2.5.

Coastal Water Temperatures

Place Temperature

Nearby Weather Stations